Ronnie Rogers — WDD2270 — position and weather

sailwx.info

Track history (hours):
 
Tides and Currents Weather Stations Pressure Air Temp Water Temp Dewpoint Dewpoint Depression Visibility Wind Speed Wind Dir Waves Ship Positions

Ronnie Rogers

Owner: Florida Marine, LLC, Mandeville, LA. More information available from US FCC via Universal Licensing System and Coast Guard Vessel Documentation Center.

Last reported at 2018-Feb-18 00:35 UTC. Time now 2018-Feb-18 09:08 UTC.
Position N 29°43' W 095°01'.

Length 27 m; draft 2.4 m.

Type: Towing. MMSI: 367113160.

Date/timePositionNaut miles runAvg speedWind from/ knotsBaromVisibWave heightAir tempDewpointWater temp
2018-Feb-18 00:35N 29°43' W 095°01'1 8.8
2018-Feb-18 00:30N 29°42' W 095°01'5 8.4
2018-Feb-17 23:56N 29°38' W 094°58'4 9.1
2018-Feb-17 23:30N 29°35' W 094°56'106 2.6
2018-Feb-16 06:20N 28°36' W 096°37'0 0.9
2018-Feb-16 05:58N 28°36' W 096°37'0 0.0
2018-Feb-16 04:42N 28°36' W 096°37'0 0.0
2018-Feb-16 04:30N 28°36' W 096°37'0 0.0
2018-Feb-16 03:47N 28°36' W 096°37'0 0.0
2018-Feb-16 03:28N 28°36' W 096°37'0 0.0
2018-Feb-16 02:18N 28°36' W 096°37'0 0.0
2018-Feb-16 02:00N 28°36' W 096°37'  
2018-Feb-11 05:30N 29°42' W 094°59'6 8.1
2018-Feb-11 04:46N 29°36' W 094°57'2 8.7
2018-Feb-11 04:30N 29°34' W 094°55'  
Track history (hours):
 
Tides and Currents Weather Stations Pressure Air Temp Water Temp Dewpoint Dewpoint Depression Visibility Wind Speed Wind Dir Waves Ship Positions

Ronnie Rogers

Owner: Florida Marine, LLC, Mandeville, LA. More information available from US FCC via Universal Licensing System and Coast Guard Vessel Documentation Center.

Last reported at 2018-Feb-18 00:35 UTC. Time now 2018-Feb-18 09:08 UTC.
Position N 29°43' W 095°01'.

Length 27 m; draft 2.4 m.

Type: Towing. MMSI: 367113160.

Date/timePositionNaut miles runAvg speedWind from/ knotsBaromVisibWave heightAir tempDewpointWater temp
2018-Feb-18 00:35N 29°43' W 095°01'1 8.8
2018-Feb-18 00:30N 29°42' W 095°01'5 8.4
2018-Feb-17 23:56N 29°38' W 094°58'4 9.1
2018-Feb-17 23:30N 29°35' W 094°56'106 2.6
2018-Feb-16 06:20N 28°36' W 096°37'0 0.9
2018-Feb-16 05:58N 28°36' W 096°37'0 0.0
2018-Feb-16 04:42N 28°36' W 096°37'0 0.0
2018-Feb-16 04:30N 28°36' W 096°37'0 0.0
2018-Feb-16 03:47N 28°36' W 096°37'0 0.0
2018-Feb-16 03:28N 28°36' W 096°37'0 0.0
2018-Feb-16 02:18N 28°36' W 096°37'0 0.0
2018-Feb-16 02:00N 28°36' W 096°37'  
2018-Feb-11 05:30N 29°42' W 094°59'6 8.1
2018-Feb-11 04:46N 29°36' W 094°57'2 8.7
2018-Feb-11 04:30N 29°34' W 094°55'  

Dump ship's entire track history